Terminal Aerodrome Forecast
Issued by NWS

Home | Current Version | Previous Version | Text Only | Print | Product List | Glossary On
Versions: 1 2 3 4 5 6 7 8 9 10 11 12 13 14 15 16 17 18 19 20 21 22 23
000
FTAK31 PAJN 250737 AAA
TAFAKT
TAF AMD
PAKT 250737Z 2508/2606 01006KT P6SM -SHSN OVC050 WS020/24025KT
     FM251000 03012KT 4SM -SHSN OVC050 WS020/26030KT
     FM251800 32012KT 6SM -SHRA SCT015 OVC025
     FM252200 31005KT P6SM BKN050
      AMD LTD TO CLD VIS AND WIND 2506/2515=

USA.gov is the U.S. government's official web portal to all federal, state and local government web resources and services.